LICA/SUF METAR and TAF weather

Enter ICAO airport designator
Station Type Date Time Source
LICA METAR 2020/08/12 17:50 UTC NOAA

LICA 121750Z AUTO 24007KT 9999 FEW022/// 27/22 Q1016


Station Type Date Time Source
LICA Decoded METAR 2020/08/12 17:50 UTC NOAA

Lamezia Terme, Italy (LICA) 38-54N 016-15E
Aug 12, 2020 - 01:50 PM EDT / 2020.08.12 1750 UTC
Wind: from the WSW (240 degrees) at 8 MPH (7 KT):0
Visibility: greater than 7 mile(s):0
Sky conditions: mostly clear
Temperature: 80 F (27 C)
Dew Point: 71 F (22 C)
Relative Humidity: 74%
Pressure (altimeter): 30.00 in. Hg (1016 hPa)
ob: LICA 121750Z AUTO 24007KT 9999 FEW022/// 27/22 Q1016
cycle: 18

Station Type Date Time Source
LICA TAF 2020/08/12 18:21 UTC NOAA

TAF LICA 121700Z 1218/1318 VRB05KT 9999 SCT030
BECMG 1308/1310 27012KT

Example: see airport list